Time;durP1;ratioP1;P1;durP2;ratioP2;P2;SDS_P1;SDS_P2;PMS_P1;PMS_P2;Temp;Humidity;BMP_temperature;BMP_pressure;BME280_temperature;BME280_humidity;BME280_pressure;Samples;Min_cycle;Max_cycle;Signal;HPM_P1;HPM_P2
2021/10/19 00:01:23;;;;;;;6.95;1.40;;;;;14.50;101156.00;;;;5088777;28;20044;-75
2021/10/19 00:03:53;;;;;;;8.32;1.50;;;;;14.50;101180.00;;;;5088898;28;20084;-75
2021/10/19 00:06:23;;;;;;;7.47;1.27;;;;;14.60;101158.00;;;;5088535;28;20802;-73
2021/10/19 00:08:52;;;;;;;10.45;1.30;;;;;14.60;101164.00;;;;5088865;28;20483;-74
2021/10/19 00:11:21;;;;;;;4.72;0.93;;;;;14.70;101164.00;;;;5088996;28;20529;-73
2021/10/19 00:13:51;;;;;;;11.57;1.58;;;;;14.80;101183.00;;;;5088660;28;20397;-74
2021/10/19 00:16:20;;;;;;;5.50;1.05;;;;;14.70;101190.00;;;;5089247;28;20036;-74
2021/10/19 00:18:49;;;;;;;9.95;1.25;;;;;14.80;101175.00;;;;5088128;28;20113;-76
2021/10/19 00:21:19;;;;;;;6.80;1.20;;;;;14.80;101192.00;;;;5088988;28;20048;-73
2021/10/19 00:23:48;;;;;;;5.60;1.23;;;;;14.80;101178.00;;;;5088566;28;20521;-75
2021/10/19 00:26:18;;;;;;;11.60;1.80;;;;;14.80;101179.00;;;;5088854;28;20043;-74
2021/10/19 00:28:47;;;;;;;12.10;1.58;;;;;14.70;101183.00;;;;5088028;28;20059;-73
2021/10/19 00:31:16;;;;;;;10.35;1.50;;;;;14.60;101187.00;;;;5088639;28;20036;-76
2021/10/19 00:33:53;;;;;;;10.15;1.77;;;;;14.50;101182.00;;;;5088821;28;20036;-76
2021/10/19 00:36:22;;;;;;;11.35;1.25;;;;;14.40;101183.00;;;;5088503;28;20050;-74
2021/10/19 00:38:52;;;;;;;9.40;1.30;;;;;14.30;101188.00;;;;5088425;28;20521;-73
2021/10/19 00:41:22;;;;;;;7.68;1.33;;;;;14.20;101182.00;;;;5088283;28;20048;-73
2021/10/19 00:43:53;;;;;;;5.00;1.35;;;;;14.10;101200.00;;;;5088605;28;20042;-75
2021/10/19 00:46:22;;;;;;;6.30;1.05;;;;;14.00;101198.00;;;;5088356;28;20884;-75
2021/10/19 00:48:52;;;;;;;6.38;1.13;;;;;14.00;101206.00;;;;5088522;28;20048;-75
2021/10/19 00:51:22;;;;;;;9.25;1.30;;;;;13.90;101211.00;;;;5086809;28;20047;-75
2021/10/19 00:53:51;;;;;;;9.43;2.00;;;;;13.80;101213.00;;;;5084910;28;20048;-76
2021/10/19 00:56:21;;;;;;;8.82;1.17;;;;;13.80;101192.00;;;;5087034;28;20055;-75
2021/10/19 00:58:50;;;;;;;9.60;1.50;;;;;13.70;101189.00;;;;5088325;28;20040;-74
2021/10/19 01:01:20;;;;;;;7.45;1.17;;;;;13.70;101198.00;;;;5088309;28;20040;-74
2021/10/19 01:03:49;;;;;;;8.30;1.40;;;;;13.70;101194.00;;;;5087931;28;20131;-73
2021/10/19 01:06:20;;;;;;;11.38;1.60;;;;;13.60;101216.00;;;;5087749;28;20054;-75
2021/10/19 01:08:50;;;;;;;7.72;1.40;;;;;13.60;101213.00;;;;5087489;28;20074;-75
2021/10/19 01:11:19;;;;;;;9.95;1.65;;;;;13.50;101202.00;;;;5087084;28;20036;-74
2021/10/19 01:13:48;;;;;;;12.98;1.13;;;;;13.50;101187.00;;;;5088020;28;20040;-74
2021/10/19 01:16:18;;;;;;;5.50;1.10;;;;;13.40;101214.00;;;;5088027;28;20036;-73
2021/10/19 01:18:48;;;;;;;5.00;1.10;;;;;13.40;101205.00;;;;5087631;28;20425;-74
2021/10/19 01:21:17;;;;;;;5.95;0.90;;;;;13.40;101209.00;;;;5087853;28;20093;-76
2021/10/19 01:23:47;;;;;;;8.35;1.30;;;;;13.60;101201.00;;;;5087695;28;20052;-75
2021/10/19 01:26:16;;;;;;;9.23;1.25;;;;;13.60;101188.00;;;;5087290;28;20044;-76
2021/10/19 01:28:46;;;;;;;7.97;1.48;;;;;13.50;101183.00;;;;5087518;28;20044;-74
2021/10/19 01:31:15;;;;;;;4.95;1.35;;;;;13.70;101193.00;;;;5087632;28;20131;-74
2021/10/19 01:33:45;;;;;;;7.32;1.40;;;;;13.80;101187.00;;;;5086533;28;20529;-73
2021/10/19 01:36:14;;;;;;;7.53;1.52;;;;;13.80;101200.00;;;;5086976;28;20035;-75
2021/10/19 01:38:44;;;;;;;7.30;1.30;;;;;13.70;101211.00;;;;5088036;28;20048;-73
2021/10/19 01:41:13;;;;;;;8.23;1.27;;;;;13.50;101198.00;;;;5086662;28;20060;-74
2021/10/19 01:43:42;;;;;;;5.50;1.08;;;;;13.40;101193.00;;;;5086432;28;20074;-74
2021/10/19 01:46:12;;;;;;;9.63;1.40;;;;;13.50;101185.00;;;;5087016;28;20514;-75
2021/10/19 01:48:42;;;;;;;6.10;1.00;;;;;13.50;101215.00;;;;5087576;28;20052;-73
2021/10/19 01:51:11;;;;;;;7.80;1.30;;;;;13.40;101195.00;;;;5086700;28;20426;-74
2021/10/19 01:53:42;;;;;;;7.40;1.48;;;;;13.40;101196.00;;;;5087354;28;20538;-74
2021/10/19 01:56:11;;;;;;;6.03;1.00;;;;;13.50;101218.00;;;;5086172;28;20427;-75
2021/10/19 01:58:41;;;;;;;7.22;1.38;;;;;13.50;101200.00;;;;5086963;28;20044;-73
2021/10/19 02:01:11;;;;;;;7.63;1.25;;;;;13.40;101187.00;;;;5087117;28;20036;-73
2021/10/19 02:03:40;;;;;;;10.20;1.45;;;;;13.50;101202.00;;;;5087353;28;20051;-73
2021/10/19 02:06:10;;;;;;;10.07;1.33;;;;;13.50;101202.00;;;;5086565;28;20051;-73
2021/10/19 02:08:39;;;;;;;8.85;1.38;;;;;13.40;101204.00;;;;5087403;28;20079;-73
2021/10/19 02:11:10;;;;;;;4.55;1.08;;;;;13.50;101215.00;;;;5085739;28;20473;-74
2021/10/19 02:13:39;;;;;;;7.50;1.45;;;;;13.60;101196.00;;;;5086858;28;20499;-75
2021/10/19 02:16:08;;;;;;;8.75;1.15;;;;;13.70;101209.00;;;;5086578;28;20055;-74
2021/10/19 02:18:38;;;;;;;3.90;0.82;;;;;13.80;101196.00;;;;5087118;28;20392;-74
2021/10/19 02:21:07;;;;;;;12.25;1.30;;;;;13.90;101210.00;;;;5087290;28;20051;-75
2021/10/19 02:23:36;;;;;;;8.35;1.08;;;;;13.90;101220.00;;;;5086807;28;20047;-76
2021/10/19 02:26:06;;;;;;;10.40;1.23;;;;;13.90;101220.00;;;;5086621;28;20044;-75
2021/10/19 02:28:40;;;;;;;8.82;1.45;;;;;13.90;101213.00;;;;5087032;28;20068;-74
2021/10/19 02:31:12;;;;;;;9.60;1.52;;;;;13.90;101214.00;;;;5086841;28;20090;-73
2021/10/19 02:33:42;;;;;;;6.05;1.50;;;;;13.90;101190.00;;;;5086951;28;20047;-75
2021/10/19 02:36:11;;;;;;;6.03;1.85;;;;;13.90;101202.00;;;;5087239;28;20477;-73
2021/10/19 02:38:41;;;;;;;3.85;1.40;;;;;13.80;101220.00;;;;5086791;28;20044;-73
2021/10/19 02:41:11;;;;;;;3.60;1.27;;;;;13.70;101226.00;;;;5087041;28;20054;-73
2021/10/19 02:43:40;;;;;;;6.93;1.33;;;;;13.50;101218.00;;;;5086473;28;20048;-74
2021/10/19 02:46:10;;;;;;;8.38;1.65;;;;;13.50;101204.00;;;;5086817;28;20041;-74
2021/10/19 02:48:40;;;;;;;8.07;1.38;;;;;13.50;101210.00;;;;5085290;28;20105;-74
2021/10/19 02:51:10;;;;;;;10.80;1.63;;;;;13.30;101224.00;;;;5086023;28;20447;-74
2021/10/19 02:53:39;;;;;;;15.25;1.40;;;;;13.10;101222.00;;;;5086743;28;20044;-74
2021/10/19 02:56:09;;;;;;;11.77;1.45;;;;;13.00;101226.00;;;;5087174;28;20422;-74
2021/10/19 02:58:38;;;;;;;9.75;1.10;;;;;13.00;101209.00;;;;5086659;28;20487;-75
2021/10/19 03:01:08;;;;;;;5.95;1.02;;;;;12.90;101208.00;;;;5086662;28;20040;-74
2021/10/19 03:03:38;;;;;;;12.73;1.40;;;;;12.90;101207.00;;;;5086736;28;20499;-73
2021/10/19 03:06:07;;;;;;;10.40;1.70;;;;;12.80;101198.00;;;;5084739;28;20059;-75
2021/10/19 03:08:37;;;;;;;5.97;1.30;;;;;12.70;101214.00;;;;5089987;28;20032;-73
2021/10/19 03:11:06;;;;;;;9.75;1.40;;;;;12.80;101230.00;;;;5089749;28;20510;-74
2021/10/19 03:13:36;;;;;;;13.93;1.35;;;;;12.70;101199.00;;;;5089208;28;20058;-75
2021/10/19 03:16:16;;;;;;;8.60;1.58;;;;;12.60;101204.00;;;;5090300;28;20137;-74
2021/10/19 03:18:46;;;;;;;9.70;1.50;;;;;12.60;101191.00;;;;5090044;28;20044;-75
2021/10/19 03:21:16;;;;;;;12.80;1.92;;;;;12.60;101196.00;;;;5090779;28;20055;-73
2021/10/19 03:23:46;;;;;;;4.88;1.20;;;;;12.50;101213.00;;;;5090350;28;20055;-74
2021/10/19 03:26:16;;;;;;;7.15;1.05;;;;;12.50;101210.00;;;;5089339;28;20052;-74
2021/10/19 03:28:46;;;;;;;6.25;1.77;;;;;12.40;101212.00;;;;5090167;28;20134;-73
2021/10/19 03:31:15;;;;;;;7.13;1.00;;;;;12.40;101208.00;;;;5089497;28;20452;-73
2021/10/19 03:33:45;;;;;;;4.28;1.35;;;;;12.40;101185.00;;;;5088869;28;20475;-75
2021/10/19 03:36:15;;;;;;;11.15;1.40;;;;;12.30;101174.00;;;;5089784;28;20047;-75
2021/10/19 03:38:45;;;;;;;4.25;1.17;;;;;12.30;101205.00;;;;5089874;28;20071;-74
2021/10/19 03:41:14;;;;;;;7.38;1.30;;;;;12.30;101194.00;;;;5090089;28;20043;-75
2021/10/19 03:43:44;;;;;;;6.57;1.30;;;;;12.30;101188.00;;;;5089711;28;20043;-75
2021/10/19 03:46:14;;;;;;;9.23;1.48;;;;;12.30;101217.00;;;;5089957;28;20044;-74
2021/10/19 03:48:44;;;;;;;3.67;1.00;;;;;12.30;101201.00;;;;5089896;28;20064;-75
2021/10/19 03:51:13;;;;;;;10.82;1.38;;;;;12.30;101175.00;;;;5089550;28;20048;-73
2021/10/19 03:53:43;;;;;;;14.07;1.50;;;;;12.20;101166.00;;;;5089254;28;20070;-74
2021/10/19 03:56:13;;;;;;;13.57;1.20;;;;;12.30;101196.00;;;;5089395;28;20036;-73
2021/10/19 03:58:43;;;;;;;11.38;1.50;;;;;12.20;101190.00;;;;5090085;28;20630;-73
2021/10/19 04:01:13;;;;;;;8.10;1.30;;;;;12.20;101164.00;;;;5088303;28;20064;-73
2021/10/19 04:03:43;;;;;;;13.57;1.55;;;;;12.10;101159.00;;;;5089225;28;20058;-73
2021/10/19 04:06:12;;;;;;;6.05;1.05;;;;;12.00;101151.00;;;;5088018;28;20064;-75
2021/10/19 04:08:42;;;;;;;10.27;1.45;;;;;12.00;101164.00;;;;5089024;28;20039;-73
2021/10/19 04:11:12;;;;;;;2.83;1.00;;;;;11.90;101158.00;;;;5089659;28;20050;-74
2021/10/19 04:13:41;;;;;;;5.10;1.27;;;;;12.00;101175.00;;;;5089963;28;20093;-75
2021/10/19 04:16:11;;;;;;;6.95;1.40;;;;;12.00;101151.00;;;;5088917;28;20044;-74
2021/10/19 04:18:40;;;;;;;10.65;1.40;;;;;12.00;101170.00;;;;5088281;28;20052;-75
2021/10/19 04:21:11;;;;;;;12.30;1.60;;;;;11.90;101153.00;;;;5089048;28;20556;-75
2021/10/19 04:23:41;;;;;;;14.32;1.73;;;;;11.90;101137.00;;;;5089110;28;20124;-73
2021/10/19 04:26:10;;;;;;;10.82;1.20;;;;;11.90;101150.00;;;;5088556;28;20160;-74
2021/10/19 04:28:41;;;;;;;13.63;1.38;;;;;11.90;101132.00;;;;5087307;28;20071;-75
2021/10/19 04:31:11;;;;;;;12.73;1.30;;;;;11.90;101141.00;;;;5088864;28;20078;-72
2021/10/19 04:33:41;;;;;;;11.10;1.48;;;;;11.90;101130.00;;;;5088652;28;20043;-75
2021/10/19 04:36:10;;;;;;;12.57;1.73;;;;;11.90;101129.00;;;;5087789;28;20048;-73
2021/10/19 04:38:40;;;;;;;7.40;1.42;;;;;11.90;101141.00;;;;5089121;28;20086;-74
2021/10/19 04:41:10;;;;;;;11.77;1.52;;;;;11.90;101118.00;;;;5089086;28;20499;-73
2021/10/19 04:43:39;;;;;;;10.18;1.23;;;;;11.90;101134.00;;;;5088160;28;20070;-74
2021/10/19 04:46:09;;;;;;;9.77;1.23;;;;;11.80;101126.00;;;;5087260;28;20044;-75
2021/10/19 04:48:38;;;;;;;6.20;1.10;;;;;11.80;101113.00;;;;5088897;28;20416;-74
2021/10/19 04:51:10;;;;;;;10.90;1.77;;;;;11.80;101120.00;;;;5087035;28;20050;-74
2021/10/19 04:53:40;;;;;;;6.45;1.60;;;;;11.80;101130.00;;;;5088356;28;20524;-73
2021/10/19 04:56:10;;;;;;;6.55;1.30;;;;;11.80;101127.00;;;;5088157;28;20084;-74
2021/10/19 04:58:39;;;;;;;10.82;1.20;;;;;11.80;101111.00;;;;5087915;28;20802;-75
2021/10/19 05:01:09;;;;;;;9.82;1.40;;;;;11.70;101123.00;;;;5088185;28;20131;-73
2021/10/19 05:03:46;;;;;;;8.18;1.20;;;;;11.60;101099.00;;;;5088542;28;20040;-74
2021/10/19 05:06:17;;;;;;;11.60;1.38;;;;;11.60;101112.00;;;;5087828;28;20056;-74
2021/10/19 05:08:46;;;;;;;11.55;1.67;;;;;11.70;101120.00;;;;5088051;28;20089;-73
2021/10/19 05:11:17;;;;;;;6.00;1.23;;;;;11.70;101080.00;;;;5087870;28;20056;-72
2021/10/19 05:13:47;;;;;;;6.22;1.25;;;;;11.70;101104.00;;;;5088141;28;20052;-74
2021/10/19 05:16:16;;;;;;;8.90;1.35;;;;;11.60;101090.00;;;;5087819;28;20522;-74
2021/10/19 05:18:46;;;;;;;7.63;1.20;;;;;11.60;101079.00;;;;5087707;28;20044;-75
2021/10/19 05:21:16;;;;;;;4.32;1.38;;;;;11.50;101095.00;;;;5086816;28;20048;-74
2021/10/19 05:23:45;;;;;;;7.30;1.23;;;;;11.60;101085.00;;;;5087494;28;20047;-73
2021/10/19 05:26:16;;;;;;;8.50;1.70;;;;;11.50;101073.00;;;;5087767;28;20044;-74
2021/10/19 05:28:45;;;;;;;9.38;1.05;;;;;11.50;101077.00;;;;5087900;28;20036;-76
2021/10/19 05:31:16;;;;;;;5.97;1.40;;;;;11.50;101089.00;;;;5087814;28;20085;-75
2021/10/19 05:33:45;;;;;;;11.98;1.30;;;;;11.50;101087.00;;;;5087332;28;20097;-75
2021/10/19 05:36:15;;;;;;;11.38;1.30;;;;;11.40;101079.00;;;;5087512;28;20036;-73
2021/10/19 05:38:44;;;;;;;9.25;1.85;;;;;11.50;101064.00;;;;5087528;28;20055;-75
2021/10/19 05:41:16;;;;;;;8.43;1.25;;;;;11.40;101065.00;;;;5087583;28;20051;-75
2021/10/19 05:43:46;;;;;;;8.98;1.40;;;;;11.40;101074.00;;;;5087229;28;20044;-75
2021/10/19 05:46:15;;;;;;;9.93;1.20;;;;;11.40;101078.00;;;;5087740;28;20396;-75
2021/10/19 05:48:45;;;;;;;7.07;1.60;;;;;11.30;101087.00;;;;5087614;28;20052;-76
2021/10/19 05:51:14;;;;;;;5.72;1.50;;;;;11.30;101076.00;;;;5087283;28;20051;-75
2021/10/19 05:53:43;;;;;;;9.75;1.63;;;;;11.30;101058.00;;;;5087212;28;20044;-75
2021/10/19 05:56:13;;;;;;;7.60;1.40;;;;;11.40;101100.00;;;;5086509;28;20051;-73
2021/10/19 05:58:42;;;;;;;5.97;1.20;;;;;11.30;101066.00;;;;5087932;28;20044;-75
2021/10/19 06:01:12;;;;;;;10.30;1.52;;;;;11.30;101076.00;;;;5086914;28;20040;-74
2021/10/19 06:03:42;;;;;;;6.15;1.58;;;;;11.30;101096.00;;;;5086882;28;20150;-74
2021/10/19 06:06:15;;;;;;;6.13;1.40;;;;;11.20;101074.00;;;;5086729;28;20060;-75
2021/10/19 06:08:45;;;;;;;8.73;1.55;;;;;11.20;101102.00;;;;5086854;28;20040;-75
2021/10/19 06:11:15;;;;;;;7.20;1.33;;;;;11.20;101096.00;;;;5087547;28;20490;-75
2021/10/19 06:13:47;;;;;;;8.35;1.48;;;;;11.10;101089.00;;;;5086444;28;20048;-75
2021/10/19 06:16:17;;;;;;;9.68;1.67;;;;;11.10;101076.00;;;;5087142;28;20526;-75
2021/10/19 06:18:47;;;;;;;8.07;1.42;;;;;11.10;101074.00;;;;5086796;28;20123;-75
2021/10/19 06:21:18;;;;;;;8.27;1.83;;;;;11.00;101096.00;;;;5087119;28;20047;-75
2021/10/19 06:23:48;;;;;;;13.80;1.80;;;;;11.00;101088.00;;;;5085931;28;20051;-74
2021/10/19 06:26:18;;;;;;;5.80;1.50;;;;;10.90;101104.00;;;;5087534;28;20070;-74
2021/10/19 06:28:47;;;;;;;11.95;1.70;;;;;11.00;101100.00;;;;5086828;28;20044;-76
2021/10/19 06:31:17;;;;;;;4.68;1.60;;;;;11.00;101078.00;;;;5087686;28;20050;-74
2021/10/19 06:33:46;;;;;;;7.47;1.98;;;;;10.90;101105.00;;;;5087232;28;20089;-74
2021/10/19 06:36:16;;;;;;;13.07;2.28;;;;;10.80;101083.00;;;;5086448;28;20051;-76
2021/10/19 06:38:45;;;;;;;11.02;2.65;;;;;10.80;101106.00;;;;5086895;28;20048;-74
2021/10/19 06:41:15;;;;;;;10.10;1.60;;;;;10.80;101095.00;;;;5086962;28;20044;-73
2021/10/19 06:43:45;;;;;;;5.03;1.30;;;;;10.80;101101.00;;;;5090919;28;20131;-75
2021/10/19 06:46:14;;;;;;;7.72;1.50;;;;;10.80;101099.00;;;;5091900;28;20039;-74
2021/10/19 06:48:44;;;;;;;8.35;1.60;;;;;10.70;101092.00;;;;5091307;28;20050;-75
2021/10/19 06:51:13;;;;;;;8.02;1.50;;;;;10.70;101092.00;;;;5090663;28;20494;-75
2021/10/19 06:53:43;;;;;;;9.68;1.63;;;;;10.90;101087.00;;;;5089511;28;20134;-75
2021/10/19 06:56:12;;;;;;;11.80;1.80;;;;;10.80;101100.00;;;;5090676;28;20418;-75
2021/10/19 06:58:42;;;;;;;8.40;1.70;;;;;10.80;101089.00;;;;5090915;28;20051;-74
2021/10/19 07:01:14;;;;;;;12.07;1.88;;;;;10.80;101123.00;;;;5090301;28;20400;-75
2021/10/19 07:03:43;;;;;;;9.55;1.52;;;;;10.80;101103.00;;;;5089365;28;20495;-75
2021/10/19 07:06:14;;;;;;;7.93;1.50;;;;;10.70;101096.00;;;;5090743;28;20121;-75
2021/10/19 07:08:45;;;;;;;8.70;1.80;;;;;10.70;101126.00;;;;5090553;28;20044;-75
2021/10/19 07:11:14;;;;;;;8.38;1.77;;;;;10.70;101135.00;;;;5090779;28;20051;-74
2021/10/19 07:13:43;;;;;;;6.50;1.63;;;;;10.70;101143.00;;;;5090703;28;20040;-74
2021/10/19 07:16:13;;;;;;;6.32;1.70;;;;;10.80;101139.00;;;;5089977;28;20044;-75
2021/10/19 07:18:42;;;;;;;9.75;2.42;;;;;10.80;101123.00;;;;5090290;28;20051;-75
2021/10/19 07:21:13;;;;;;;7.68;1.65;;;;;10.70;101134.00;;;;5090020;28;20048;-73
2021/10/19 07:23:43;;;;;;;8.25;1.80;;;;;10.70;101121.00;;;;5090136;28;20404;-74
2021/10/19 07:26:12;;;;;;;9.35;2.10;;;;;10.70;101118.00;;;;5090084;28;20040;-75
2021/10/19 07:28:44;;;;;;;7.68;1.90;;;;;10.70;101147.00;;;;5089585;28;20055;-73
2021/10/19 07:31:14;;;;;;;9.23;2.17;;;;;10.70;101138.00;;;;5090089;28;20452;-74
2021/10/19 07:33:43;;;;;;;12.07;1.80;;;;;10.70;101144.00;;;;5090457;28;20051;-73
2021/10/19 07:36:13;;;;;;;6.07;1.60;;;;;10.70;101164.00;;;;5091349;28;20051;-74
2021/10/19 07:38:45;;;;;;;7.57;1.58;;;;;10.70;101153.00;;;;5089921;28;20089;-73
2021/10/19 07:41:14;;;;;;;8.00;1.70;;;;;10.70;101145.00;;;;5090021;28;20051;-74
2021/10/19 07:43:44;;;;;;;7.45;1.92;;;;;10.60;101160.00;;;;5089333;28;20055;-74
2021/10/19 07:46:13;;;;;;;13.75;1.75;;;;;10.50;101156.00;;;;5089647;28;20040;-73
2021/10/19 07:48:43;;;;;;;7.20;2.13;;;;;10.40;101137.00;;;;5088175;28;20048;-74
2021/10/19 07:51:13;;;;;;;11.43;2.17;;;;;10.40;101135.00;;;;5089920;28;20127;-74
2021/10/19 07:53:43;;;;;;;16.95;2.00;;;;;10.40;101155.00;;;;5088287;28;20043;-74
2021/10/19 07:56:13;;;;;;;7.38;2.05;;;;;10.30;101154.00;;;;5088290;28;20044;-73
2021/10/19 07:58:44;;;;;;;9.65;1.70;;;;;10.30;101157.00;;;;5089705;28;20130;-74
2021/10/19 08:01:15;;;;;;;7.05;1.92;;;;;10.30;101171.00;;;;5088925;28;20047;-73
2021/10/19 08:03:46;;;;;;;9.95;1.90;;;;;10.30;101175.00;;;;5089497;28;20453;-73
2021/10/19 08:06:15;;;;;;;10.40;1.95;;;;;10.30;101159.00;;;;5088954;28;20380;-73
2021/10/19 08:08:45;;;;;;;4.38;1.60;;;;;10.30;101152.00;;;;5089743;28;20123;-75
2021/10/19 08:11:14;;;;;;;8.63;2.00;;;;;10.20;101178.00;;;;5089591;28;20044;-74
2021/10/19 08:13:44;;;;;;;8.50;1.95;;;;;10.20;101178.00;;;;5089187;28;20048;-73
2021/10/19 08:16:13;;;;;;;13.35;2.47;;;;;10.20;101184.00;;;;5089993;28;20411;-73
2021/10/19 08:18:44;;;;;;;6.90;1.73;;;;;10.20;101184.00;;;;5088813;28;20052;-74
2021/10/19 08:21:13;;;;;;;8.65;1.80;;;;;10.10;101189.00;;;;5089446;28;20438;-75
2021/10/19 08:23:42;;;;;;;11.05;2.05;;;;;10.20;101192.00;;;;5089075;28;20074;-73
2021/10/19 08:26:12;;;;;;;7.05;1.63;;;;;10.20;101187.00;;;;5089000;28;20078;-74
2021/10/19 08:28:43;;;;;;;4.95;1.63;;;;;10.10;101207.00;;;;5089202;28;20086;-73
2021/10/19 08:31:15;;;;;;;4.43;1.80;;;;;10.00;101196.00;;;;5089206;28;20093;-75
2021/10/19 08:33:45;;;;;;;15.02;2.42;;;;;10.00;101215.00;;;;5088846;28;20119;-75
2021/10/19 08:36:14;;;;;;;8.07;1.80;;;;;10.10;101213.00;;;;5088877;28;20506;-74
2021/10/19 08:38:46;;;;;;;10.32;2.17;;;;;10.10;101195.00;;;;5088760;28;20564;-75
2021/10/19 08:41:17;;;;;;;7.72;2.30;;;;;10.20;101233.00;;;;5087478;28;20048;-74
2021/10/19 08:43:48;;;;;;;9.32;2.15;;;;;10.10;101218.00;;;;5088839;28;20040;-74
2021/10/19 08:46:18;;;;;;;8.35;1.75;;;;;10.00;101213.00;;;;5088866;28;20530;-74
2021/10/19 08:48:48;;;;;;;10.88;1.70;;;;;10.00;101239.00;;;;5088788;28;20055;-74
2021/10/19 08:51:18;;;;;;;4.55;1.55;;;;;10.10;101218.00;;;;5088685;28;20052;-75
2021/10/19 08:53:48;;;;;;;12.45;2.10;;;;;10.10;101212.00;;;;5089015;28;20044;-75
2021/10/19 08:56:20;;;;;;;18.98;2.08;;;;;10.10;101253.00;;;;5088402;28;20048;-74
2021/10/19 08:58:59;;;;;;;15.95;2.08;;;;;10.00;101248.00;;;;5088054;28;20039;-76
2021/10/19 09:01:38;;;;;;;9.00;1.80;;;;;10.00;101237.00;;;;5087086;28;20067;-75
2021/10/19 09:04:12;;;;;;;10.63;1.88;;;;;10.00;101254.00;;;;5088312;28;20044;-75
2021/10/19 09:06:43;;;;;;;14.98;2.38;;;;;10.10;101250.00;;;;5087706;28;20078;-75
2021/10/19 09:09:22;;;;;;;6.80;1.70;;;;;10.10;101253.00;;;;5088288;28;20047;-74
2021/10/19 09:11:54;;;;;;;12.07;2.20;;;;;10.10;101263.00;;;;5088163;28;20047;-76
2021/10/19 09:14:49;;;;;;;11.10;1.70;;;;;10.20;101257.00;;;;5087955;28;20040;-74
2021/10/19 09:17:19;;;;;;;5.45;1.58;;;;;10.20;101271.00;;;;5086086;28;20445;-74
2021/10/19 09:19:49;;;;;;;7.05;1.50;;;;;10.20;101272.00;;;;5086842;28;20118;-74
2021/10/19 09:22:18;;;;;;;9.38;1.95;;;;;10.30;101257.00;;;;5087435;28;20056;-75
2021/10/19 09:24:52;;;;;;;15.52;2.42;;;;;10.40;101246.00;;;;5086967;28;20051;-75
2021/10/19 09:27:21;;;;;;;16.23;2.55;;;;;10.60;101264.00;;;;5087311;28;20028;-75
2021/10/19 09:29:51;;;;;;;12.73;3.50;;;;;10.70;101264.00;;;;5087644;28;20040;-74
2021/10/19 09:32:21;;;;;;;13.60;3.10;;;;;10.90;101290.00;;;;5087663;28;20139;-76
2021/10/19 09:34:51;;;;;;;12.68;2.97;;;;;11.00;101296.00;;;;5084525;28;20056;-76
2021/10/19 09:37:21;;;;;;;7.47;2.33;;;;;11.00;101289.00;;;;5085880;28;20434;-76
2021/10/19 09:39:53;;;;;;;14.23;2.85;;;;;11.20;101290.00;;;;5087647;28;20537;-76
2021/10/19 09:42:24;;;;;;;6.50;2.35;;;;;11.30;101306.00;;;;5086997;28;20036;-77
2021/10/19 09:44:59;;;;;;;5.85;2.42;;;;;11.40;101315.00;;;;5086178;28;20093;-76
2021/10/19 09:47:39;;;;;;;11.55;2.50;;;;;11.60;101300.00;;;;5087611;28;20052;-76
2021/10/19 09:50:10;;;;;;;5.22;1.90;;;;;12.20;101265.00;;;;5088068;28;20121;-77
2021/10/19 09:52:41;;;;;;;13.25;2.25;;;;;16.70;101087.00;;;;5087146;28;20127;-75
2021/10/19 09:55:12;;;;;;;9.07;2.08;;;;;18.80;101096.00;;;;5086957;28;20051;-75
2021/10/19 09:57:42;;;;;;;4.47;1.52;;;;;19.90;101071.00;;;;5087689;28;20059;-76
2021/10/19 10:00:15;;;;;;;12.73;2.30;;;;;20.30;101057.00;;;;5085847;28;20588;-76
2021/10/19 10:02:45;;;;;;;9.70;1.50;;;;;20.20;101091.00;;;;5086622;28;20044;-76
2021/10/19 10:05:16;;;;;;;2.83;1.10;;;;;20.30;101116.00;;;;5087242;28;20040;-75
2021/10/19 10:07:49;;;;;;;12.10;1.83;;;;;18.20;101162.00;;;;5083713;28;20426;-75
2021/10/19 10:10:21;;;;;;;15.80;1.65;;;;;18.40;101159.00;;;;5087444;28;20052;-75
2021/10/19 10:13:06;;;;;;;3.25;1.30;;;;;19.60;101062.00;;;;5087312;28;20070;-75
2021/10/19 10:15:36;;;;;;;11.15;2.50;;;;;20.90;101060.00;;;;5086421;28;20131;-76
2021/10/19 10:18:09;;;;;;;9.80;2.20;;;;;21.40;101024.00;;;;5083108;28;20423;-76
2021/10/19 10:20:41;;;;;;;11.45;2.72;;;;;21.50;101017.00;;;;5084169;28;20052;-76
2021/10/19 10:23:20;;;;;;;11.68;5.93;;;;;22.30;101033.00;;;;5085554;28;20048;-74
2021/10/19 10:25:52;;;;;;;8.75;3.67;;;;;21.40;101004.00;;;;5085753;28;20043;-75
2021/10/19 10:28:31;;;;;;;13.05;2.83;;;;;22.50;101022.00;;;;5086174;28;20411;-75
2021/10/19 10:31:17;;;;;;;16.42;3.00;;;;;22.50;101003.00;;;;5085099;28;20040;-75
2021/10/19 10:33:50;;;;;;;12.27;2.50;;;;;22.60;101009.00;;;;5086728;28;20040;-75
2021/10/19 10:36:21;;;;;;;11.98;2.13;;;;;22.40;101020.00;;;;5087254;28;20043;-76
2021/10/19 10:39:00;;;;;;;11.80;2.22;;;;;23.20;101038.00;;;;5087127;28;20047;-76
2021/10/19 10:41:45;;;;;;;10.43;2.10;;;;;23.60;101061.00;;;;5086661;28;20036;-74
2021/10/19 10:44:22;;;;;;;8.32;1.90;;;;;23.10;101054.00;;;;5085436;28;20040;-75
2021/10/19 10:47:04;;;;;;;10.02;1.63;;;;;24.40;101053.00;;;;5086484;28;20044;-74
2021/10/19 10:49:33;;;;;;;6.13;1.55;;;;;23.70;101042.00;;;;5086619;28;20037;-75
2021/10/19 10:52:17;;;;;;;27.38;1.98;;;;;24.00;101052.00;;;;5087208;28;20048;-76
2021/10/19 10:54:57;;;;;;;7.55;1.30;;;;;24.70;101043.00;;;;5086275;28;20499;-76
2021/10/19 10:57:27;;;;;;;27.73;3.67;;;;;24.50;101050.00;;;;5086586;28;20040;-76
2021/10/19 10:59:57;;;;;;;7.03;1.40;;;;;24.00;101073.00;;;;5086803;28;20131;-73
2021/10/19 11:02:27;;;;;;;7.97;1.20;;;;;23.90;101044.00;;;;5086413;28;20086;-76
2021/10/19 11:04:59;;;;;;;13.13;2.90;;;;;24.00;101042.00;;;;5087150;28;20165;-75
2021/10/19 11:07:32;;;;;;;5.38;1.58;;;;;24.30;101061.00;;;;5086285;28;20164;-76
2021/10/19 11:10:15;;;;;;;6.78;1.70;;;;;24.80;101066.00;;;;5086749;28;20093;-74
2021/10/19 11:12:46;;;;;;;5.45;1.80;;;;;24.40;101056.00;;;;5086344;28;20040;-75
2021/10/19 11:15:17;;;;;;;10.80;1.77;;;;;24.40;101063.00;;;;5086311;28;20051;-75
2021/10/19 11:17:53;;;;;;;7.40;1.73;;;;;24.60;101091.00;;;;5086231;28;20048;-76
2021/10/19 11:20:25;;;;;;;4.93;1.45;;;;;24.90;101088.00;;;;5085050;28;20519;-76
2021/10/19 11:22:55;;;;;;;11.23;1.67;;;;;24.30;101102.00;;;;5087087;28;20040;-74
2021/10/19 11:25:24;;;;;;;5.18;2.13;;;;;24.50;101113.00;;;;5086272;28;20044;-71
2021/10/19 11:27:55;;;;;;;24.05;3.50;;;;;24.40;101106.00;;;;5085890;28;20123;-73
2021/10/19 11:30:25;;;;;;;8.55;1.90;;;;;23.70;101102.00;;;;5090094;28;20040;-75
2021/10/19 11:32:55;;;;;;;20.08;2.03;;;;;23.40;101107.00;;;;5090796;28;20047;-72
2021/10/19 11:35:26;;;;;;;15.05;7.57;;;;;23.50;101090.00;;;;5090014;28;20457;-75
2021/10/19 11:37:55;;;;;;;14.75;2.97;;;;;23.10;101089.00;;;;5089950;28;20044;-74
2021/10/19 11:40:25;;;;;;;4.88;1.48;;;;;22.80;101082.00;;;;5088434;28;20138;-75
2021/10/19 11:42:56;;;;;;;4.22;1.40;;;;;22.10;101134.00;;;;5089883;28;20068;-76
2021/10/19 11:45:27;;;;;;;5.57;1.63;;;;;22.60;101254.00;;;;5089807;28;20052;-74
2021/10/19 11:48:03;;;;;;;4.00;1.50;;;;;21.50;101261.00;;;;5090113;28;20097;-76
2021/10/19 11:50:34;;;;;;;9.20;2.10;;;;;20.60;101295.00;;;;5089648;28;20518;-76
2021/10/19 11:53:05;;;;;;;4.32;1.85;;;;;20.30;101292.00;;;;5089272;28;20127;-76
2021/10/19 11:55:35;;;;;;;21.50;2.88;;;;;20.80;101279.00;;;;5089700;28;20043;-75
2021/10/19 11:58:05;;;;;;;9.35;2.22;;;;;21.60;101304.00;;;;5089678;28;20097;-74
2021/10/19 12:00:36;;;;;;;6.03;2.13;;;;;21.70;101287.00;;;;5088417;28;20051;-74
2021/10/19 12:03:06;;;;;;;8.73;1.80;;;;;21.50;101286.00;;;;5089771;28;20055;-73
2021/10/19 12:05:37;;;;;;;4.03;1.90;;;;;21.50;101276.00;;;;5087968;28;20072;-74
2021/10/19 12:08:10;;;;;;;6.65;1.50;;;;;21.50;101292.00;;;;5089280;28;20055;-75
2021/10/19 12:10:47;;;;;;;5.47;2.00;;;;;21.50;101305.00;;;;5089121;28;20040;-73
2021/10/19 12:13:19;;;;;;;5.88;1.58;;;;;21.60;101295.00;;;;5088678;28;20040;-75
2021/10/19 12:15:55;;;;;;;9.20;2.08;;;;;22.30;101301.00;;;;5088896;28;20076;-76
2021/10/19 12:18:25;;;;;;;3.78;1.70;;;;;23.10;101313.00;;;;5089076;28;20417;-75
2021/10/19 12:20:54;;;;;;;6.53;1.85;;;;;22.90;101301.00;;;;5089161;28;20055;-74
2021/10/19 12:23:27;;;;;;;4.72;1.88;;;;;22.60;101309.00;;;;5089065;28;20059;-73